createdAt,value
2024-05-09T18:42:18.411Z,71.93
2024-05-09T18:44:45.564Z,71.07
2024-05-09T18:47:13.736Z,71.08
2024-05-09T18:49:41.993Z,70.88
2024-05-09T18:52:09.318Z,70.30
2024-05-09T18:54:36.571Z,71.32
2024-05-09T18:57:04.111Z,71.05
2024-05-09T18:59:33.986Z,68.46
2024-05-09T19:02:01.415Z,69.26
2024-05-09T19:04:28.844Z,69.42
2024-05-09T19:06:56.097Z,67.86
2024-05-09T19:09:23.315Z,68.26
2024-05-09T19:11:50.559Z,68.34
2024-05-09T19:14:17.757Z,68.15
2024-05-09T19:16:47.700Z,68.08
2024-05-09T19:19:15.012Z,68.14
2024-05-09T19:21:43.059Z,68.53
2024-05-09T19:24:10.285Z,68.12
2024-05-09T19:26:37.574Z,68.01
2024-05-09T19:29:04.784Z,67.77
2024-05-09T19:31:32.097Z,67.06
2024-05-09T19:34:01.998Z,68.36
2024-05-09T19:36:29.254Z,69.72
2024-05-09T19:38:56.526Z,69.78
2024-05-09T19:41:23.708Z,69.16
2024-05-09T19:43:50.833Z,70.00
2024-05-09T19:46:18.205Z,71.02
2024-05-09T19:48:45.619Z,70.71
2024-05-09T19:51:15.634Z,70.80
2024-05-09T19:53:42.855Z,70.24
2024-05-09T19:56:10.006Z,71.61
2024-05-09T19:58:37.235Z,70.32
2024-05-09T20:01:04.768Z,71.20
2024-05-09T20:03:32.084Z,71.92
2024-05-09T20:05:59.342Z,72.41
2024-05-09T20:08:29.162Z,71.34
2024-05-09T20:10:56.671Z,72.64
2024-05-09T20:13:24.053Z,73.02
2024-05-09T20:15:51.479Z,72.78
2024-05-09T20:18:18.907Z,72.13
2024-05-09T20:20:47.282Z,72.76
2024-05-09T20:23:15.604Z,72.35
2024-05-09T20:25:45.542Z,72.40
2024-05-09T20:28:12.746Z,71.64
2024-05-09T20:30:40.120Z,71.26
2024-05-09T20:33:08.876Z,70.80
2024-05-09T20:35:37.017Z,69.49
2024-05-09T20:38:04.905Z,69.89
2024-05-09T20:40:36.111Z,70.71
2024-05-09T20:43:08.872Z,69.55
2024-05-09T20:45:36.421Z,70.66
2024-05-09T20:48:04.186Z,67.63
2024-05-09T20:50:38.226Z,68.50
2024-05-09T20:53:09.620Z,67.49
2024-05-09T20:55:36.953Z,67.41
2024-05-09T20:58:04.486Z,66.67
2024-05-09T21:00:39.691Z,60.79
2024-05-09T21:03:10.630Z,60.13
2024-05-09T21:05:38.670Z,59.26
2024-05-09T21:08:06.965Z,58.83
2024-05-09T21:10:34.901Z,58.80
2024-05-09T21:13:03.408Z,60.63
2024-05-09T21:15:33.954Z,59.35
2024-05-09T21:18:01.404Z,60.43
2024-05-09T21:20:31.536Z,59.60
2024-05-09T21:23:00.587Z,58.63
2024-05-09T21:25:28.249Z,57.70
2024-05-09T21:27:55.925Z,57.70
2024-05-09T21:30:32.511Z,56.79
2024-05-09T21:33:11.851Z,56.06
2024-05-09T21:35:40.695Z,56.70
2024-05-09T21:38:08.062Z,56.08
2024-05-09T21:40:36.780Z,56.81
2024-05-09T21:43:05.548Z,56.70
2024-05-09T21:45:33.293Z,56.47
2024-05-09T21:48:00.733Z,57.18
2024-05-09T21:50:37.059Z,57.35
2024-05-09T21:53:07.983Z,57.18
2024-05-09T21:55:35.248Z,59.97
2024-05-09T21:58:03.164Z,59.80
2024-05-09T22:00:36.805Z,61.24
2024-05-09T22:03:07.552Z,61.49
2024-05-09T22:05:38.638Z,59.71
2024-05-09T22:08:06.940Z,59.81
2024-05-09T22:10:36.199Z,60.97
2024-05-09T22:13:05.194Z,60.78
2024-05-09T22:15:34.041Z,58.88
2024-05-09T22:18:01.514Z,58.10
2024-05-09T22:20:35.837Z,58.41
2024-05-09T22:23:08.962Z,58.22
2024-05-09T22:25:36.628Z,58.36
2024-05-09T22:28:04.440Z,59.28
2024-05-09T22:30:36.690Z,58.37
2024-05-09T22:33:07.142Z,56.65
2024-05-09T22:35:34.583Z,55.81
2024-05-09T22:38:02.537Z,54.19
2024-05-09T22:40:42.062Z,53.30
2024-05-09T22:43:21.496Z,52.71
2024-05-09T22:45:50.706Z,52.36
2024-05-09T22:48:18.287Z,52.47
2024-05-09T22:50:45.589Z,52.07
2024-05-09T22:53:12.789Z,51.20
2024-05-09T22:55:42.736Z,51.46
2024-05-09T22:58:10.057Z,51.26
2024-05-09T23:00:37.378Z,51.28
2024-05-09T23:03:04.849Z,51.56
2024-05-09T23:05:32.875Z,50.88
2024-05-09T23:08:01.096Z,50.14
2024-05-09T23:10:34.762Z,50.12
2024-05-09T23:13:07.951Z,50.39
2024-05-09T23:15:37.179Z,50.45
2024-05-09T23:18:05.513Z,50.12
2024-05-09T23:20:37.705Z,49.81
2024-05-09T23:23:07.246Z,49.65
2024-05-09T23:25:34.667Z,49.77
2024-05-09T23:28:02.026Z,49.30
2024-05-09T23:30:37.223Z,49.64
2024-05-09T23:33:07.528Z,49.18
2024-05-09T23:35:35.168Z,49.39
2024-05-09T23:38:02.387Z,49.17
2024-05-09T23:40:38.146Z,49.45
2024-05-09T23:43:08.502Z,49.28
2024-05-09T23:45:38.891Z,49.39
2024-05-09T23:48:06.906Z,49.09
2024-05-09T23:50:37.554Z,49.17
2024-05-09T23:53:08.002Z,48.86
2024-05-09T23:55:36.701Z,49.26
2024-05-09T23:58:04.250Z,49.29
